• Join FlightAware (Why Join?)
  • Login
  • US Flag 
06:15PM EDT


 

Airport Tracker/Info


-or-


 

Live Flight TrackerFlight Track Log ✈ FFT919 ✈ 15-Jul-2013 ✈ KTTN - KRDU

Flight Track Log - Related Links

Times and Time Zones

All times are in EDT time to prevent confusion due to time zone crossing. See the FFT919 flight status page for this flight to view local times or setup timezone preferences in your user account.

Time Position Orientation Groundspeed Altitude Reporting Facility
EDT Latitude Longitude Course Direction KTS MPH feet Rate Location/Type
06:36AM 40.2667 -74.8333 217° Southwest 121 139 800  Level Philadelphia TRACON
06:38AM 40.2167 -74.8833 217° Southwest 210 242 2,800 2,160 Climbing Philadelphia TRACON
06:39AM 40.1833 -74.9500 237° Southwest 277 319 5,400 2,100 Climbing Philadelphia TRACON
06:40AM 40.1167 -75.0167 217° Southwest 281 323 7,000 780 Climbing Philadelphia TRACON
06:41AM 40.0500 -75.0500 201° Southwest 281 323 7,000 1,320 Level Philadelphia TRACON
06:42AM 39.9833 -75.1000 210° Southwest 285 328 9,700 1,200 Climbing Philadelphia TRACON
06:43AM 39.8525 -75.1753 204° Southwest 300 345 10,500 720 Climbing Washington Center
06:44AM 39.7650 -75.2272 205° Southwest 320 368 11,900 660 Climbing Washington Center
06:45AM 39.6672 -75.2842 204° Southwest 343 395 11,900  Level Washington Center
06:46AM 39.5736 -75.3142 194° South 343 395 11,900  Level Washington Center
06:47AM 39.4778 -75.3333 189° South 348 400 11,900 780 Level Washington Center
06:48AM 39.3778 -75.3500 187° South 353 406 13,500 1,980 Climbing Washington Center
06:49AM 39.2778 -75.3692 188° South 363 418 15,900 1,680 Climbing Washington Center
06:50AM 39.1717 -75.3856 187° South 374 430 16,900 1,260 Climbing Washington Center
06:51AM 39.0653 -75.4017 187° South 386 444 18,400 1,740 Climbing Washington Center
06:52AM 38.9547 -75.4208 188° South 391 450 20,400 1,920 Climbing Washington Center
06:53AM 38.8381 -75.4372 186° South 406 467 22,300 1,800 Climbing Washington Center
06:54AM 38.7214 -75.4533 186° South 418 481 24,200 2,100 Climbing Washington Center
06:55AM 38.6006 -75.4722 187° South 431 496 26,500 1,860 Climbing Washington Center
06:56AM 38.4881 -75.5014 191° South 431 496 28,000 720 Climbing Washington Center
06:57AM 38.3900 -75.5836 213° Southwest 416 479 28,000  Level Washington Center
06:58AM 38.2983 -75.6500 210° Southwest 416 479 28,000  Level Washington Center
06:59AM 38.1981 -75.7344 214° Southwest 423 487 28,000  Level Washington Center
07:00AM 38.1019 -75.8161 214° Southwest 429 494 28,000  Level Washington Center
07:01AM 38.0017 -75.8947 212° Southwest 429 494 28,000  Level Washington Center
07:02AM 37.9056 -75.9761 214° Southwest 429 494 28,000  Level Washington Center
07:03AM 37.7969 -76.0647 213° Southwest 429 494 28,000  Level Washington Center
07:04AM 37.7111 -76.1406 215° Southwest 429 494 28,000  Level Washington Center
07:05AM 37.5958 -76.2236 210° Southwest 429 494 28,000  Level Washington Center
07:06AM 37.4994 -76.3039 213° Southwest 434 499 28,000 -300 Level Washington Center
07:07AM 37.4008 -76.3839 213° Southwest 434 499 27,400 -1,440 Descending Washington Center
07:08AM 37.3067 -76.4561 211° Southwest 423 487 25,200 -1,800 Descending Washington Center
07:09AM 37.2203 -76.5542 222° Southwest 423 487 23,800 -960 Descending Washington Center
07:10AM 37.1633 -76.6447 232° Southwest 418 481 23,300 -420 Descending Washington Center
07:11AM 37.0850 -76.7661 231° Southwest 412 474 23,000 -180 Descending Washington Center
07:12AM 37.0150 -76.8769 232° Southwest 412 474 23,000  Level Washington Center
07:13AM 36.9450 -76.9875 232° Southwest 412 474 23,000 -60 Level Washington Center
07:14AM 36.8706 -77.0978 230° Southwest 412 474 22,900 -360 Descending Washington Center
07:15AM 36.7983 -77.2078 231° Southwest 412 474 22,400 -540 Descending Washington Center
07:16AM 36.7300 -77.3153 232° Southwest 412 474 21,900 -540 Descending Washington Center
07:17AM 36.6594 -77.4225 231° Southwest 412 474 21,400 -540 Descending Washington Center
07:18AM 36.5931 -77.5297 232° Southwest 412 474 20,900 -540 Descending Washington Center
07:19AM 36.5161 -77.6439 230° Southwest 412 474 20,400 -780 Descending Washington Center
07:20AM 36.4497 -77.7456 231° Southwest 401 461 19,400 -2,040 Descending Washington Center
07:21AM 36.3831 -77.8519 232° Southwest 401 461 16,400 -2,700 Descending Washington Center
07:22AM 36.3100 -77.9608 230° Southwest 401 461 14,000 -1,620 Descending Washington Center
07:23AM 36.2456 -78.0567 230° Southwest 393 452 13,300 -960 Descending Washington Center
07:24AM 36.1853 -78.1475 231° Southwest 362 417 12,100 -660 Descending Washington Center
07:25AM 36.1372 -78.2358 236° Southwest 349 402 12,000 -180 Descending Washington Center
07:26AM 36.0847 -78.3447 239° Southwest 343 395 11,800 -780 Descending Washington Center
07:27AM 36.0475 -78.4256 240° Southwest 325 374 10,500 -1,500 Descending Washington Center
07:28AM 36.0014 -78.5214 239° Southwest 306 352 8,800 -1,320 Descending Washington Center
07:29AM 35.9436 -78.5808 220° Southwest 286 329 8,000 -420 Descending Washington Center
07:30AM 35.8814 -78.6478 221° Southwest 290 334 8,000 -240 Level Washington Center
07:31AM 35.8192 -78.7119 220° Southwest 290 334 7,600 -1,200 Descending Washington Center
07:32AM 35.7672 -78.7764 225° Southwest 282 325 5,700 -1,620 Descending Washington Center
07:34AM 35.7381 -78.8572 246° West 245 282 4,400 -1,200 Descending Washington Center
07:35AM 35.7892 -78.9003 326° Northwest 228 262 3,100 -1,380 Descending Washington Center
07:36AM 35.8319 -78.8533 42° Northeast 212 244 1,500 -1,260 Descending Washington Center
07:37AM 35.8644 -78.8164 43° Northeast 136 157 700 -840 Descending Washington Center
07:39AM 35.8667 -78.7833 349° North  Level FlightAware Approximate
07:46AM 35.8776 -78.7875 349° North  Level Estimated